Search for airport 
image banner adimage banner adimage banner ad
image banner ad

9PA9 - Lankenau Hospital

Located in Philadelphia, United States

ICAO - 9PA9, IATA -

Data provided by Airmate  

General information

Coordinates: N39°59'17" W75°15'35"
Elevation is 221 feet MSL.
Magnetic variation is -11° East
View others Airports in Pennsylvania

Operational data

Special qualification required
Current time UTC:
Current local time:
Weather at : KPHL - Philadelphia Intl ( 13 km )
METAR: KPHL 071154Z 05006KT 10SM FEW130 BKN250 13/00 A2992 RMK AO2 SLP131 T01280000 10128 20094 55002
TAF: KPHL 071120Z 0712/0818 05004KT P6SM FEW100 SCT250 FM071700 14007KT P6SM SCT040 OVC070 FM072100 14006KT P6SM VCSH BKN070 FM080300 26004KT 6SM -SHRA BR SCT025 OVC040 FM080900 00000KT P6SM BKN025
View NOTAMs / SUP AIP / TFR affecting this airport [VIEW]
Communications frequencies: [VIEW]

Runways:

Airport contact information

Address: Philadelphia United States

Satellite view of 9PA9